Aeroporto :
LOGIN :

Iscrizione | Disclaimer

   EN    FR    IT 

 










Sommario :    VFR   VFR Marginale   IFR   IFR Intensivo   IFR Molto Intensivo
Visibilità : 
Base nubi : 
>= 8 km
>= 3000ft
5 / 8 km
1000 / 3000 ft
1500m / 5 km
500 / 1000 ft
800 / 1500m
200 / 500 ft
< 800m
< 200 ft
Simboli :   Temporali  Nebbia  Neve Forte  Precipitazioni Forti  Vento > 20 kt
SIGMETs :   Varie  Temporali  Ghiacco  Turbolenza  Onda orograficha  Ceneri Vulcaniche






- Altitudine del aeroporto : 226 ft
- Codice IATA : BEX


EGUB - RAF Benson

ULTIMO METAR :
  • 292320Z AUTO 21002KT 9999 FEW058/// OVC078/// 12/11 Q1009

METARs OBSOLETI :
  • 292250Z 19002KT 9999 FEW035 BKN080 11/10 Q1009 NOSIG RMK BLU BLU
  • 292220Z 30002KT 9999 FEW028 BKN085 12/11 Q1009 NOSIG RMK BLU BLU
  • 292150Z 03001KT 9999 FEW027 SCT035 BKN065 13/11 Q1009 NOSIG RMK BLU BLU
  • 292120Z 29004KT 9999 -SHRA FEW025 SCT036 BKN055 13/11 Q1009 NOSIG RMK BLU BLU
  • 292050Z 28002KT 9999 VCSH SCT032 BKN075 14/10 Q1009 NOSIG RMK BLU BLU
  • 292020Z 32004KT 9999 FEW040 BKN075 15/10 Q1009 NOSIG RMK BLU BLU
  • 291950Z 31006KT 9999 FEW035 BKN075 15/09 Q1009 NOSIG RMK BLU BLU
  • 291920Z 28005KT 9999 FEW032 BKN070 15/10 Q1009 NOSIG RMK BLU BLU
  • 291850Z 25006KT 9999 FEW036 BKN045 BKN080 15/10 Q1009 NOSIG RMK BLU BLU

TAF TAF EGUB
Valido dal 30 a 00 ore il 30 a 03 ore UTC


292238Z 3000/3003 27004KT 9999 FEW040
ATIS : +44 1491-837766 (x7524)



MetMap, La meteo Aeronautica in un colpo d'occhio ! - Copyright ORBIFLY Dicembre 2007 - Disclaimer

ORBIFLY MET'MAP TEAM :

Programmazione e sviluppo : Alexandra Zaïnal
Concezione : Baudouin d'Aumeries
Supporto tecnico e logistico : Manuel Goepfert
Aiuto : Marc-Olivier Méhu
Aiuto per la traduzione : Arnaldo La Scala




FONTI E CREDITI :

   NOAA